WMKM/MKZ METAR and TAF weather

Enter ICAO airport designator
Station Type Date Time Source
WMKM METAR 2020/01/20 21:00 UTC NOAA

WMKM 202100Z 04006KT 320V110 9999 FEW028 26/23 Q1012


Station Type Date Time Source
WMKM Decoded METAR 2020/01/20 21:00 UTC NOAA

Malacca, Malaysia (WMKM) 02-16N 102-15E 9M
Jan 20, 2020 - 04:00 PM EST / 2020.01.20 2100 UTC
Wind: from the NE (040 degrees) at 7 MPH (6 KT) (direction variable):0
Visibility: greater than 7 mile(s):0
Sky conditions: mostly clear
Temperature: 78 F (26 C)
Dew Point: 73 F (23 C)
Relative Humidity: 83%
Pressure (altimeter): 29.88 in. Hg (1012 hPa)
ob: WMKM 202100Z 04006KT 320V110 9999 FEW028 26/23 Q1012
cycle: 21

Station Type Date Time Source
WMKM TAF 2020/01/20 18:00 UTC NOAA

TAF WMKM 201700Z 2018/2118 04007KT 9999 FEW028

Example: see airport list